Grouse Creek, UT (84313)

12:58 PM MST on February 13, 2016 (GMT -0700)
Lucin airport | | Change Station
CLOSE
Current Station
Personal Weather Station
Location: Wendover, UT
Elevation: 4413 ft
Nearby Weather Stations

Elev 4413 ft 41.37 °N, 113.84 °W | Updated 4 minutes ago

Mostly Cloudy
Mostly Cloudy
37.8 °F
Feels Like 36 °F
N
3.2
Wind Variable Wind from South

Today
High -- | Low -- °F
--% Chance of Precip.
Yesterday
High -- | Low -- °F
Precip. -- in
Pressure 30.34 in
Visibility 10.0 miles
Clouds Overcast 800 ft
Windchill 36 °F
Dew Point 29 °F
Humidity 71%
Rainfall 0.00 in
Snow Depth Not available.
7:33 AM 6:05 PM
Waxing Crescent, 33% visible
METAR KENV 131955Z AUTO 17004KT 10SM OVC008 01/M03 A3034 RMK AO1
Pressure 30.34 in
Visibility 10.0 miles
Clouds Overcast 800 ft
Windchill 36 °F
Dew Point 29 °F
Humidity 71%
Rainfall 0.00 in
Snow Depth Not available.
7:33 AM 6:05 PM
Waxing Crescent, 33% visible
METAR KENV 131955Z AUTO 17004KT 10SM OVC008 01/M03 A3034 RMK AO1

10-Day Weather Forecast

Almanac

Astronomy

Feb. 13, 2016 Rise Set
Actual Time
Civil Twilight
Nautical Twilight
Astronomical Twilight
Moon
Length of Visible Light
Length of Day
Tomorrow will be .
, % of the Moon is Illuminated

Today's Extremes

State Highs State Lows

Community

WunderPhotos

Upload Photos

1,892,642 photos uploaded!

WunderBlog® & News

Nearby

Air Quality

  Air Quality AQ Index Pollutant
Not available.

Snow Depth

Station Depth Elevation

Earthquake Activity

City Distance Mag. Time & Date
Minimum magnitude displayed is 2.5.

Coastal Water Temperatures

Place Temperature

Stations

Nearby Weather Stations

Station Location Temp. Windchill Dew Point Humidity Wind Precip. Elev Updated Type
                   

Watches & Warnings

There are currently no watches in effect.